Bradshaw Army Airfield Camp Pohakuloa US
ICAO: PHSF
IATA:
Category: Medium
Scheduled Services:

Elevation: 6190 ft
TransAlt. 18000 ft.

Airport Communications:
HONOLULU CNTR:126
ATIS:124.7
CTAF:126.3
RANGE:38.3
PMSV METRO:122.75
HONOLULU RDO:25.54
TWR:41.5

PHSF Zoom In..

If you have problems with the map follow the link
https://www.worldairports.se/pages/airport.php?
ICAO=PHSF

Runways:

(A) RW 09 length 3695 ft width 90 ft
---- / hdg 91

(B) RW 27 length 3695 ft width 90 ft
---- / hdg 271

Location; PHSF
Day. 16 / Time. 10.56 Zulu
* Altimeter: 30.28
* Temperature: 09° c. 48.2°f.
* Wind from: 130° Speed 07 kn.
Dewpoint: 00° c.
Visibility: 10 Statute Miles.
Clouds: Clear (automated report).

PHSF 161056Z AUTO 13007KT 10SM CLR 09/00 A3028 RMK AO2 SLP144 WND DATA ESTMD T00870004 PWINO $


Wind From 130°
Speed 07 kn.

 
 
jpsmedia.com for Web Design worldairports.se 2018   terms of use